Time;durP1;ratioP1;P1;durP2;ratioP2;P2;SDS_P1;SDS_P2;PMS_P1;PMS_P2;Temp;Humidity;BMP_temperature;BMP_pressure;BME280_temperature;BME280_humidity;BME280_pressure;Samples;Min_cycle;Max_cycle;Signal;HPM_P1;HPM_P2
2022/05/21 00:01:43;;;;;;;6.35;4.40;;;20.50;72.90;;;;;;5075973;28;20205;-68
2022/05/21 00:04:10;;;;;;;5.03;3.72;;;20.50;72.90;;;;;;5082993;28;20302;-67
2022/05/21 00:06:38;;;;;;;4.03;3.63;;;20.60;73.00;;;;;;5069388;28;20650;-66
2022/05/21 00:09:05;;;;;;;5.30;3.90;;;20.60;72.90;;;;;;5072317;28;20638;-67
2022/05/21 00:11:34;;;;;;;8.57;4.15;;;20.60;73.00;;;;;;5074373;28;20681;-67
2022/05/21 00:14:01;;;;;;;4.72;3.85;;;20.60;73.10;;;;;;5073134;28;20316;-68
2022/05/21 00:16:27;;;;;;;5.50;4.22;;;20.50;73.20;;;;;;5074786;28;20233;-67
2022/05/21 00:18:54;;;;;;;6.60;4.28;;;20.60;73.40;;;;;;5075664;28;20247;-67
2022/05/21 00:21:21;;;;;;;4.50;4.05;;;20.60;73.70;;;;;;5074387;28;20197;-67
2022/05/21 00:23:48;;;;;;;9.40;4.85;;;20.50;74.10;;;;;;5074443;28;20215;-67
2022/05/21 00:26:16;;;;;;;5.72;5.00;;;20.50;74.80;;;;;;5078497;28;20613;-68
2022/05/21 00:28:46;;;;;;;6.35;4.78;;;20.40;75.30;;;;;;5086310;28;20233;-67
2022/05/21 00:31:15;;;;;;;4.97;4.50;;;20.40;76.20;;;;;;5077443;28;20295;-67
2022/05/21 00:33:44;;;;;;;4.72;4.22;;;20.30;77.30;;;;;;5086899;28;20296;-68
2022/05/21 00:36:11;;;;;;;8.38;4.80;;;20.20;78.00;;;;;;5083154;28;20204;-67
2022/05/21 00:38:39;;;;;;;8.13;5.65;;;20.20;78.50;;;;;;5072762;28;20212;-68
2022/05/21 00:41:08;;;;;;;9.07;5.10;;;20.10;79.30;;;;;;5074491;28;20201;-67
2022/05/21 00:43:46;;;;;;;6.40;5.20;;;20.10;80.20;;;;;;5074219;28;20208;-66
2022/05/21 00:46:16;;;;;;;6.28;5.18;;;20.10;81.40;;;;;;5066663;28;20709;-67
2022/05/21 00:48:43;;;;;;;6.53;5.70;;;20.00;82.30;;;;;;5072627;28;20216;-66
2022/05/21 00:51:16;;;;;;;10.23;6.68;;;20.00;83.30;;;;;;5073221;28;20300;-68
2022/05/21 00:53:46;;;;;;;12.65;6.82;;;19.90;85.20;;;;;;5068692;28;20229;-67
2022/05/21 00:56:14;;;;;;;11.27;6.95;;;19.80;87.80;;;;;;5072463;28;20213;-67
2022/05/21 01:01:29;;;;;;;8.20;6.03;;;19.40;92.20;;;;;;5074787;28;20200;-65
2022/05/21 01:03:56;;;;;;;9.73;6.15;;;19.10;94.40;;;;;;5076042;28;20273;-65
2022/05/21 01:06:23;;;;;;;6.97;6.28;;;18.90;96.30;;;;;;5084316;28;20197;-65
2022/05/21 01:08:50;;;;;;;8.60;6.90;;;18.70;99.10;;;;;;5082226;28;20280;-65
2022/05/21 01:11:20;;;;;;;10.50;6.97;;;18.50;99.90;;;;;;5072943;28;20670;-64
2022/05/21 01:13:49;;;;;;;9.65;6.53;;;18.40;99.90;;;;;;5064943;28;20268;-65
2022/05/21 01:16:16;;;;;;;12.38;7.78;;;18.30;99.90;;;;;;5075802;28;20197;-65
2022/05/21 01:18:45;;;;;;;10.32;7.10;;;18.10;99.90;;;;;;5078303;28;20708;-64
2022/05/21 01:21:11;;;;;;;8.90;6.50;;;18.10;99.90;;;;;;5077352;28;20649;-64
2022/05/21 01:23:40;;;;;;;9.27;6.57;;;18.00;99.90;;;;;;5076485;28;20311;-65
2022/05/21 01:26:19;;;;;;;9.40;6.80;;;18.00;99.90;;;;;;5075150;28;20765;-65
2022/05/21 01:28:46;;;;;;;13.38;7.43;;;18.00;99.90;;;;;;5074884;28;20641;-65
2022/05/21 01:31:12;;;;;;;7.65;6.75;;;17.90;99.90;;;;;;5075565;28;20247;-65
2022/05/21 01:33:42;;;;;;;9.77;7.40;;;17.90;99.90;;;;;;5066722;28;20236;-65
2022/05/21 01:36:09;;;;;;;7.72;6.93;;;17.80;99.90;;;;;;5070730;28;20263;-66
2022/05/21 01:38:37;;;;;;;8.38;7.47;;;17.90;99.90;;;;;;5074506;28;20255;-65
2022/05/21 01:41:09;;;;;;;8.23;7.40;;;17.90;99.90;;;;;;5074634;28;20288;-66
2022/05/21 01:46:21;;;;;;;7.90;7.10;;;17.90;99.90;;;;;;5066509;28;20227;-64
2022/05/21 01:48:49;;;;;;;10.32;7.38;;;17.80;99.90;;;;;;5073822;28;20198;-65
2022/05/21 01:51:16;;;;;;;9.48;7.88;;;17.80;99.90;;;;;;5087819;28;20261;-64
2022/05/21 01:53:43;;;;;;;11.45;7.88;;;17.70;99.90;;;;;;5079405;28;20208;-65
2022/05/21 01:56:13;;;;;;;12.98;8.05;;;17.70;99.90;;;;;;5078440;28;20296;-66
2022/05/21 01:58:40;;;;;;;9.40;7.55;;;17.60;99.90;;;;;;5078359;28;20205;-65
2022/05/21 02:01:08;;;;;;;12.68;7.68;;;17.50;99.90;;;;;;5077163;28;20197;-64
2022/05/21 02:03:36;;;;;;;8.82;7.50;;;17.50;99.90;;;;;;5067180;28;20224;-65
2022/05/21 02:06:04;;;;;;;9.05;8.05;;;17.50;99.90;;;;;;5077096;28;20311;-64
2022/05/21 02:08:31;;;;;;;9.43;8.07;;;17.50;99.90;;;;;;5079551;28;20296;-64
2022/05/21 02:10:58;;;;;;;11.75;8.98;;;17.50;99.90;;;;;;5078501;28;20690;-64
2022/05/21 02:13:29;;;;;;;10.40;8.73;;;17.50;99.90;;;;;;5078054;28;20208;-65
2022/05/21 02:15:57;;;;;;;9.95;8.77;;;17.50;99.90;;;;;;5077681;28;20321;-64
2022/05/21 02:18:23;;;;;;;10.27;8.90;;;17.50;99.90;;;;;;5078518;28;20197;-65
2022/05/21 02:20:52;;;;;;;9.55;8.65;;;17.40;99.90;;;;;;5077046;28;20210;-64
2022/05/21 02:23:19;;;;;;;10.93;8.45;;;17.50;99.90;;;;;;5063857;28;20201;-65
2022/05/21 02:25:46;;;;;;;8.82;7.88;;;17.50;99.90;;;;;;5077793;28;20311;-65
2022/05/21 02:28:14;;;;;;;10.07;8.27;;;17.40;99.90;;;;;;5074823;28;20619;-64
2022/05/21 02:30:43;;;;;;;9.85;8.65;;;17.40;99.90;;;;;;5072437;28;20300;-64
2022/05/21 02:33:10;;;;;;;9.85;8.82;;;17.40;99.90;;;;;;5077601;28;20490;-65
2022/05/21 02:35:37;;;;;;;10.07;9.07;;;17.40;99.90;;;;;;5077259;28;20665;-65
2022/05/21 02:40:48;;;;;;;13.75;8.48;;;17.40;99.90;;;;;;5077495;28;20227;-65
2022/05/21 02:43:15;;;;;;;14.18;9.05;;;17.40;99.90;;;;;;5076471;28;20285;-64
2022/05/21 02:45:43;;;;;;;10.15;9.20;;;17.50;99.90;;;;;;5075982;28;20296;-65
2022/05/21 02:48:10;;;;;;;10.85;8.75;;;17.50;99.90;;;;;;5077892;28;20297;-65
2022/05/21 02:50:37;;;;;;;10.57;9.30;;;17.50;99.90;;;;;;5078148;28;20653;-65
2022/05/21 02:53:06;;;;;;;10.68;9.65;;;17.50;99.90;;;;;;5075456;28;20236;-65
2022/05/21 02:55:34;;;;;;;11.00;9.80;;;17.50;99.90;;;;;;5088590;28;20646;-64
2022/05/21 02:58:01;;;;;;;11.50;10.38;;;17.50;99.90;;;;;;5089710;28;20285;-64
2022/05/21 03:00:31;;;;;;;12.55;10.38;;;17.40;99.90;;;;;;5077544;28;20292;-65
2022/05/21 03:03:00;;;;;;;11.65;10.45;;;17.40;99.90;;;;;;5068342;28;20201;-66
2022/05/21 03:05:29;;;;;;;13.23;11.85;;;17.40;99.90;;;;;;5076662;28;20621;-65
2022/05/21 03:07:56;;;;;;;13.68;9.65;;;17.40;99.90;;;;;;5063003;28;20216;-65
2022/05/21 03:10:24;;;;;;;11.45;10.35;;;17.40;99.90;;;;;;5076796;28;20209;-65
2022/05/21 03:12:53;;;;;;;10.40;9.35;;;17.40;99.90;;;;;;5077030;28;20201;-65
2022/05/21 03:15:22;;;;;;;12.35;10.02;;;17.40;99.90;;;;;;5077351;28;20237;-65
2022/05/21 03:17:49;;;;;;;10.77;9.70;;;17.40;99.90;;;;;;5077329;28;20300;-65
2022/05/21 03:20:20;;;;;;;9.82;8.93;;;17.50;99.90;;;;;;5071385;28;20206;-65
2022/05/21 03:22:47;;;;;;;10.55;9.25;;;17.50;99.90;;;;;;5071680;28;20676;-65
2022/05/21 03:25:14;;;;;;;11.43;10.13;;;17.50;99.90;;;;;;5075286;28;20228;-65
2022/05/21 03:27:41;;;;;;;10.02;9.13;;;17.50;99.90;;;;;;5063642;28;20206;-65
2022/05/21 03:30:12;;;;;;;11.63;9.02;;;17.50;99.90;;;;;;5066105;28;20247;-64
2022/05/21 03:32:38;;;;;;;13.05;8.93;;;17.50;99.90;;;;;;5076747;28;20292;-65
2022/05/21 03:35:07;;;;;;;9.82;8.88;;;17.60;99.90;;;;;;5076998;28;20630;-65
2022/05/21 03:37:37;;;;;;;12.63;9.82;;;17.60;99.90;;;;;;5069864;28;20224;-64
2022/05/21 03:40:05;;;;;;;10.77;9.68;;;17.50;99.90;;;;;;5072231;28;20564;-65
2022/05/21 03:42:32;;;;;;;10.63;9.45;;;17.50;99.90;;;;;;5075159;28;20437;-65
2022/05/21 03:44:59;;;;;;;12.25;10.00;;;17.50;99.90;;;;;;5074250;28;20717;-64
2022/05/21 03:47:26;;;;;;;11.32;8.77;;;17.50;99.90;;;;;;5088711;28;20300;-64
2022/05/21 03:49:53;;;;;;;12.27;9.93;;;17.60;99.90;;;;;;5077189;28;20213;-64
2022/05/21 03:52:20;;;;;;;11.93;10.13;;;17.60;99.90;;;;;;5075837;28;20208;-65
2022/05/21 03:54:48;;;;;;;10.82;9.80;;;17.60;99.90;;;;;;5075823;28;20205;-64
2022/05/21 03:57:16;;;;;;;11.60;10.00;;;17.60;99.90;;;;;;5076581;28;20205;-65
2022/05/21 03:59:44;;;;;;;13.98;10.77;;;17.60;99.90;;;;;;5077009;28;20215;-65
2022/05/21 04:02:11;;;;;;;10.88;9.88;;;17.60;99.90;;;;;;5069061;28;20642;-64
2022/05/21 04:04:38;;;;;;;13.07;10.68;;;17.60;99.90;;;;;;5075413;28;20292;-65
2022/05/21 04:07:07;;;;;;;12.07;10.88;;;17.60;99.90;;;;;;5076662;28;20716;-64
2022/05/21 04:09:33;;;;;;;13.00;10.57;;;17.60;99.90;;;;;;5074646;28;20209;-65
2022/05/21 04:12:03;;;;;;;14.85;11.23;;;17.60;99.90;;;;;;5074259;28;20209;-66
2022/05/21 04:14:30;;;;;;;12.18;10.85;;;17.70;99.90;;;;;;5075720;28;20235;-65
2022/05/21 04:16:57;;;;;;;13.27;11.52;;;17.70;99.90;;;;;;5076389;28;20205;-64
2022/05/21 04:19:26;;;;;;;11.68;10.48;;;17.80;99.90;;;;;;5077934;28;20238;-64
2022/05/21 04:21:53;;;;;;;12.38;11.07;;;17.80;99.90;;;;;;5069659;28;20231;-65
2022/05/21 04:24:20;;;;;;;12.30;11.05;;;17.80;99.90;;;;;;5074955;28;20202;-65
2022/05/21 04:26:48;;;;;;;12.63;11.32;;;17.80;99.90;;;;;;5075400;28;20343;-65
2022/05/21 04:29:17;;;;;;;13.52;12.02;;;17.80;99.90;;;;;;5071807;28;20260;-65
2022/05/21 04:31:44;;;;;;;11.20;10.23;;;17.80;99.90;;;;;;5068992;28;20227;-65
2022/05/21 04:34:11;;;;;;;13.27;10.82;;;17.70;99.90;;;;;;5084998;28;20232;-64
2022/05/21 04:36:38;;;;;;;13.55;11.73;;;17.60;99.90;;;;;;5076725;28;20193;-65
2022/05/21 04:39:05;;;;;;;13.43;11.98;;;17.60;99.90;;;;;;5066599;28;20238;-65
2022/05/21 04:41:33;;;;;;;16.77;11.75;;;17.60;99.90;;;;;;5068810;28;20212;-65
2022/05/21 04:44:02;;;;;;;12.95;11.65;;;17.60;99.90;;;;;;5076338;28;20201;-65
2022/05/21 04:46:31;;;;;;;14.38;12.88;;;17.60;99.90;;;;;;5075268;28;20225;-65
2022/05/21 04:48:58;;;;;;;13.40;11.65;;;17.60;99.90;;;;;;5074205;28;20208;-65
2022/05/21 04:51:25;;;;;;;13.52;12.15;;;17.50;99.90;;;;;;5075234;28;20217;-63
2022/05/21 04:53:52;;;;;;;13.30;11.95;;;17.50;99.90;;;;;;5065857;28;20210;-65
2022/05/21 04:56:19;;;;;;;13.55;11.75;;;17.50;99.90;;;;;;5074353;28;20276;-65
2022/05/21 04:58:46;;;;;;;12.88;11.05;;;17.50;99.90;;;;;;5071917;28;20198;-63
2022/05/21 05:01:12;;;;;;;13.65;10.32;;;17.40;99.90;;;;;;5074178;28;20201;-65
2022/05/21 05:03:41;;;;;;;12.85;11.15;;;17.40;99.90;;;;;;5076358;28;20269;-65
2022/05/21 05:06:08;;;;;;;13.70;11.48;;;17.40;99.90;;;;;;5074479;28;20243;-66
2022/05/21 05:08:36;;;;;;;12.65;10.52;;;17.40;99.90;;;;;;5075283;28;20214;-64
2022/05/21 05:11:03;;;;;;;11.77;10.57;;;17.40;99.90;;;;;;5074194;28;20206;-64
2022/05/21 05:13:30;;;;;;;12.98;11.35;;;17.50;99.90;;;;;;5068651;28;20242;-64
2022/05/21 05:15:57;;;;;;;12.65;11.38;;;17.50;99.90;;;;;;5071954;28;20224;-64
2022/05/21 05:18:27;;;;;;;13.85;11.40;;;17.40;99.90;;;;;;5071501;28;20235;-65
2022/05/21 05:20:55;;;;;;;13.35;12.02;;;17.40;99.90;;;;;;5059569;28;20209;-64
2022/05/21 05:23:22;;;;;;;12.82;11.48;;;17.40;99.90;;;;;;5080428;28;20207;-65
2022/05/21 05:25:49;;;;;;;13.30;12.00;;;17.30;99.90;;;;;;5074890;28;20504;-65
2022/05/21 05:28:18;;;;;;;13.48;12.18;;;17.30;99.90;;;;;;5076326;28;20284;-65
2022/05/21 05:30:46;;;;;;;13.15;11.70;;;17.30;99.90;;;;;;5067286;28;20294;-65
2022/05/21 05:33:13;;;;;;;13.18;11.75;;;17.20;99.90;;;;;;5073321;28;20244;-64
2022/05/21 05:35:41;;;;;;;13.23;11.32;;;17.20;99.90;;;;;;5074811;28;20236;-65
2022/05/21 05:38:12;;;;;;;13.18;11.10;;;17.10;99.90;;;;;;5070683;28;20245;-65
2022/05/21 05:40:41;;;;;;;13.25;11.73;;;17.10;99.90;;;;;;5072399;28;20706;-65
2022/05/21 05:43:08;;;;;;;15.73;12.35;;;17.10;99.90;;;;;;5070396;28;20626;-65
2022/05/21 05:45:35;;;;;;;11.82;10.63;;;17.00;99.90;;;;;;5078313;28;20236;-66
2022/05/21 05:48:02;;;;;;;12.07;10.98;;;17.10;99.90;;;;;;5074537;28;20300;-65
2022/05/21 05:50:29;;;;;;;11.75;10.55;;;17.10;99.90;;;;;;5071129;28;20248;-66
2022/05/21 05:53:01;;;;;;;12.38;11.07;;;17.10;99.90;;;;;;5075137;28;20259;-66
2022/05/21 05:55:30;;;;;;;11.35;10.25;;;17.00;99.90;;;;;;5074123;28;20224;-66
2022/05/21 05:57:57;;;;;;;14.10;10.68;;;17.00;99.90;;;;;;5067359;28;20277;-65
2022/05/21 06:00:24;;;;;;;14.85;10.88;;;17.00;99.90;;;;;;5065320;28;20224;-66
2022/05/21 06:03:01;;;;;;;11.82;10.57;;;17.00;99.90;;;;;;5062602;28;20610;-66
2022/05/21 06:05:30;;;;;;;12.23;11.02;;;17.00;99.90;;;;;;5079189;28;20200;-65
2022/05/21 06:08:00;;;;;;;12.07;10.98;;;17.00;99.90;;;;;;5085082;28;20239;-66
2022/05/21 06:10:30;;;;;;;13.32;11.07;;;17.00;99.90;;;;;;5079511;28;20608;-66
2022/05/21 06:12:58;;;;;;;11.80;10.60;;;17.10;99.90;;;;;;5073889;28;20647;-66
2022/05/21 06:15:26;;;;;;;12.27;11.07;;;17.10;99.90;;;;;;5080083;28;20620;-65
2022/05/21 06:17:53;;;;;;;11.13;10.02;;;17.10;99.90;;;;;;5082362;28;20236;-65
2022/05/21 06:20:22;;;;;;;10.43;9.43;;;17.10;99.90;;;;;;5088396;28;20209;-65
2022/05/21 06:22:49;;;;;;;11.50;10.20;;;17.10;99.90;;;;;;5088464;28;20296;-65
2022/05/21 06:25:18;;;;;;;10.88;9.25;;;17.20;99.90;;;;;;5081644;28;20337;-66
2022/05/21 06:27:48;;;;;;;10.77;9.70;;;17.20;99.90;;;;;;5086635;28;20619;-65
2022/05/21 06:30:16;;;;;;;9.93;8.95;;;17.20;99.90;;;;;;5075234;28;20262;-65
2022/05/21 06:32:43;;;;;;;10.80;8.80;;;17.20;99.90;;;;;;5086999;28;20234;-67
2022/05/21 06:35:12;;;;;;;9.82;8.82;;;17.20;99.90;;;;;;5069821;28;20270;-66
2022/05/21 06:37:39;;;;;;;9.40;8.40;;;17.20;99.90;;;;;;5071776;28;20236;-65
2022/05/21 06:40:08;;;;;;;12.93;9.38;;;17.20;99.90;;;;;;5083208;28;20675;-65
2022/05/21 06:42:35;;;;;;;10.18;8.57;;;17.30;99.90;;;;;;5070349;28;20573;-65
2022/05/21 06:45:04;;;;;;;8.60;7.80;;;17.40;99.90;;;;;;5072203;28;20290;-66
2022/05/21 06:47:31;;;;;;;7.63;6.90;;;17.40;99.90;;;;;;5062876;28;20229;-66
2022/05/21 06:49:59;;;;;;;7.35;6.65;;;17.40;99.90;;;;;;5079386;28;20250;-66
2022/05/21 06:52:27;;;;;;;7.03;5.00;;;17.40;99.90;;;;;;5074634;28;20209;-66
2022/05/21 06:54:54;;;;;;;6.40;4.68;;;17.50;99.90;;;;;;5077952;28;20219;-68
2022/05/21 06:57:26;;;;;;;3.67;3.38;;;17.60;99.90;;;;;;5078281;28;20201;-67
2022/05/21 06:59:53;;;;;;;5.13;3.50;;;17.60;99.90;;;;;;5067896;28;20205;-66
2022/05/21 07:02:21;;;;;;;3.63;2.80;;;17.70;99.90;;;;;;5089395;28;20265;-67
2022/05/21 07:07:35;;;;;;;2.70;2.50;;;18.00;99.90;;;;;;5078922;28;20577;-69
2022/05/21 07:10:05;;;;;;;3.17;2.65;;;18.10;99.90;;;;;;5073734;28;20665;-69
2022/05/21 07:12:32;;;;;;;2.63;2.45;;;18.20;99.90;;;;;;5088197;28;20597;-67
2022/05/21 07:14:59;;;;;;;2.60;2.40;;;18.30;99.90;;;;;;5070196;28;20280;-68
2022/05/21 07:17:27;;;;;;;3.65;2.65;;;18.50;99.90;;;;;;5074536;28;20621;-67
2022/05/21 07:19:54;;;;;;;2.88;2.05;;;18.50;99.90;;;;;;5075641;28;20225;-66
2022/05/21 07:22:22;;;;;;;2.17;1.95;;;18.50;99.90;;;;;;5083095;28;20236;-68
2022/05/21 07:24:49;;;;;;;2.25;1.73;;;18.40;99.90;;;;;;5077018;28;20615;-67
2022/05/21 07:27:17;;;;;;;2.13;1.55;;;18.30;99.90;;;;;;5076802;28;20237;-68
2022/05/21 07:29:44;;;;;;;3.15;1.20;;;18.20;99.90;;;;;;5075911;28;20229;-68
2022/05/21 07:32:17;;;;;;;1.85;1.20;;;17.90;99.90;;;;;;5074009;28;20205;-67
2022/05/21 07:34:45;;;;;;;1.20;1.10;;;17.90;99.90;;;;;;5073488;28;20771;-67
2022/05/21 07:37:12;;;;;;;3.42;1.33;;;17.70;99.90;;;;;;5074336;28;20201;-67
2022/05/21 07:39:40;;;;;;;3.15;1.20;;;17.60;99.90;;;;;;5077154;28;20342;-67
2022/05/21 07:42:07;;;;;;;3.08;1.10;;;17.40;99.90;;;;;;5084409;28;20310;-66
2022/05/21 07:44:35;;;;;;;1.52;1.20;;;17.30;99.90;;;;;;5074913;28;20296;-68
2022/05/21 07:47:02;;;;;;;4.07;1.13;;;17.20;99.90;;;;;;5064464;28;20602;-64
2022/05/21 07:49:28;;;;;;;2.47;1.13;;;17.10;99.90;;;;;;5073911;28;20212;-63
2022/05/21 07:51:59;;;;;;;2.20;1.02;;;17.10;99.90;;;;;;5074283;28;20229;-64
2022/05/21 07:54:26;;;;;;;2.33;1.07;;;17.00;99.90;;;;;;5064878;28;20217;-65
2022/05/21 07:56:53;;;;;;;2.37;1.10;;;17.00;99.90;;;;;;5070632;28;20201;-64
2022/05/21 07:59:20;;;;;;;1.10;1.00;;;16.90;99.90;;;;;;5073819;28;20571;-65
2022/05/21 08:01:47;;;;;;;2.67;0.80;;;16.90;99.90;;;;;;5076004;28;20560;-65
2022/05/21 08:04:17;;;;;;;1.38;1.00;;;16.90;99.90;;;;;;5076074;28;20633;-66
2022/05/21 08:06:43;;;;;;;1.25;1.15;;;16.90;99.90;;;;;;5073444;28;20256;-66
2022/05/21 08:09:12;;;;;;;1.53;1.17;;;16.90;99.90;;;;;;5082778;28;20205;-67
2022/05/21 08:11:39;;;;;;;1.95;1.20;;;16.80;99.90;;;;;;5072269;28;20205;-66
2022/05/21 08:14:06;;;;;;;1.45;0.90;;;16.70;99.90;;;;;;5068422;28;20713;-68
2022/05/21 08:16:33;;;;;;;1.47;0.70;;;16.70;99.90;;;;;;5080122;28;20224;-66
2022/05/21 08:19:01;;;;;;;4.85;1.10;;;16.60;99.90;;;;;;5084032;28;20215;-65
2022/05/21 08:21:29;;;;;;;3.60;1.08;;;16.60;99.90;;;;;;5070128;28;20206;-66
2022/05/21 08:29:32;;;;;;;1.93;1.00;;;16.50;99.90;;;;;;5065511;28;20229;-64
2022/05/21 08:32:00;;;;;;;5.35;0.85;;;16.50;99.90;;;;;;5072916;28;20741;-64
2022/05/21 08:34:28;;;;;;;5.72;0.82;;;16.50;99.90;;;;;;5065419;28;20224;-65
2022/05/21 08:36:56;;;;;;;3.90;0.77;;;16.50;99.90;;;;;;5069880;28;20215;-65
2022/05/21 08:39:23;;;;;;;3.13;1.10;;;16.50;99.90;;;;;;5074272;28;20239;-66
2022/05/21 08:41:54;;;;;;;0.98;0.70;;;16.50;99.90;;;;;;5074240;28;20731;-66
2022/05/21 08:44:34;;;;;;;2.53;0.73;;;16.50;99.90;;;;;;5073693;28;20630;-65
2022/05/21 08:47:05;;;;;;;2.80;1.55;;;16.50;99.90;;;;;;5070994;28;20758;-67
2022/05/21 08:49:36;;;;;;;0.80;0.63;;;16.50;99.90;;;;;;5073433;28;20205;-66
2022/05/21 08:52:14;;;;;;;6.30;0.80;;;16.50;99.90;;;;;;5071552;28;20573;-65
2022/05/21 08:54:44;;;;;;;3.53;0.80;;;16.50;99.90;;;;;;5076931;28;20205;-66
2022/05/21 08:57:16;;;;;;;2.83;0.80;;;16.50;99.90;;;;;;5075055;28;20542;-65
2022/05/21 08:59:49;;;;;;;3.45;0.95;;;16.40;99.90;;;;;;5074521;28;20273;-66
2022/05/21 09:02:18;;;;;;;2.37;0.80;;;16.40;99.90;;;;;;5065620;28;20288;-66
2022/05/21 09:04:45;;;;;;;3.53;1.03;;;16.70;99.90;;;;;;5068249;28;20229;-66
2022/05/21 09:07:17;;;;;;;2.33;0.50;;;17.00;99.90;;;;;;5069220;28;20329;-66
2022/05/21 09:09:59;;;;;;;4.03;0.85;;;17.40;99.90;;;;;;5075166;28;20308;-66
2022/05/21 09:12:40;;;;;;;1.45;0.45;;;17.70;99.90;;;;;;5073358;28;20585;-68
2022/05/21 09:15:10;;;;;;;0.70;0.70;;;17.80;99.90;;;;;;5064403;28;20252;-68
2022/05/21 09:17:42;;;;;;;3.42;0.60;;;17.80;99.90;;;;;;5068501;28;20198;-67
2022/05/21 09:20:18;;;;;;;3.30;0.90;;;17.70;99.90;;;;;;5073573;28;20604;-67
2022/05/21 09:22:54;;;;;;;1.48;0.65;;;17.60;99.90;;;;;;5073075;28;20204;-66
2022/05/21 09:25:26;;;;;;;1.67;0.80;;;17.50;99.90;;;;;;5071512;28;20236;-65
2022/05/21 09:28:02;;;;;;;1.75;0.63;;;17.50;99.90;;;;;;5073791;28;20603;-66
2022/05/21 09:30:31;;;;;;;1.90;0.82;;;17.60;99.90;;;;;;5073969;28;20229;-66
2022/05/21 09:33:00;;;;;;;3.00;0.88;;;17.60;99.90;;;;;;5069319;28;20233;-66
2022/05/21 09:35:29;;;;;;;1.65;0.93;;;17.70;99.90;;;;;;5079761;28;20212;-68
2022/05/21 09:38:11;;;;;;;1.15;0.70;;;17.90;99.90;;;;;;5075026;28;20205;-67
2022/05/21 09:40:39;;;;;;;4.70;0.98;;;18.20;99.90;;;;;;5071198;28;20296;-66
2022/05/21 09:46:17;;;;;;;9.10;1.15;;;18.20;99.90;;;;;;5063548;28;20220;-66
2022/05/21 09:48:46;;;;;;;1.40;0.88;;;18.10;99.90;;;;;;5074310;28;20271;-66
2022/05/21 09:51:24;;;;;;;1.30;0.85;;;18.00;99.90;;;;;;5071881;28;20572;-67
2022/05/21 09:53:52;;;;;;;1.92;1.50;;;17.90;99.90;;;;;;5071530;28;20216;-67
2022/05/21 09:56:21;;;;;;;2.53;1.00;;;17.70;99.90;;;;;;5075208;28;20205;-65
2022/05/21 09:58:52;;;;;;;1.48;0.90;;;17.70;99.90;;;;;;5073917;28;20637;-67
2022/05/21 10:01:36;;;;;;;3.33;1.00;;;17.60;99.90;;;;;;5072322;28;20236;-67
2022/05/21 10:04:12;;;;;;;1.20;0.90;;;17.50;99.90;;;;;;5069492;28;20205;-67
2022/05/21 10:06:43;;;;;;;2.43;1.20;;;17.50;99.90;;;;;;5073557;28;20201;-67
2022/05/21 10:12:05;;;;;;;1.20;1.10;;;17.30;99.90;;;;;;5081242;28;20200;-65
2022/05/21 10:14:38;;;;;;;4.80;1.03;;;17.20;99.90;;;;;;5076388;28;20237;-67
2022/05/21 10:17:08;;;;;;;3.08;0.98;;;17.10;99.90;;;;;;5082630;28;20226;-67
2022/05/21 10:19:41;;;;;;;1.48;0.93;;;17.10;99.90;;;;;;5077002;28;20280;-67
2022/05/21 10:22:18;;;;;;;4.40;1.00;;;17.00;99.90;;;;;;5077073;28;20701;-66
2022/05/21 10:24:55;;;;;;;1.10;1.00;;;17.00;99.90;;;;;;5082475;28;20235;-66
2022/05/21 10:27:33;;;;;;;2.47;0.97;;;16.90;99.90;;;;;;5069959;28;20711;-66
2022/05/21 10:30:07;;;;;;;1.75;1.05;;;16.90;99.90;;;;;;5078300;28;20217;-66
2022/05/21 10:33:08;;;;;;;2.22;1.02;;;16.90;99.90;;;;;;5074790;28;20235;-66
2022/05/21 10:35:51;;;;;;;8.17;0.87;;;16.90;99.90;;;;;;5060003;28;20201;-66
2022/05/21 10:38:33;;;;;;;4.68;1.08;;;16.90;99.90;;;;;;5061676;28;20205;-67
2022/05/21 10:41:04;;;;;;;1.45;1.10;;;16.90;99.90;;;;;;5076903;28;20292;-67
2022/05/21 10:44:01;;;;;;;1.77;0.93;;;16.90;99.90;;;;;;5076502;28;20705;-67
2022/05/21 10:46:41;;;;;;;1.77;1.10;;;16.80;99.90;;;;;;5076240;28;20664;-67
2022/05/21 10:49:45;;;;;;;5.33;1.10;;;16.70;99.90;;;;;;5077422;28;20216;-67
2022/05/21 10:52:16;;;;;;;3.95;1.13;;;16.60;99.90;;;;;;5092270;28;20265;-67
2022/05/21 10:55:02;;;;;;;0.67;0.67;;;16.60;99.90;;;;;;5076044;28;20224;-66
2022/05/21 10:57:43;;;;;;;2.03;0.90;;;16.50;99.90;;;;;;5070992;28;20292;-66
2022/05/21 11:00:14;;;;;;;2.20;0.85;;;16.40;99.90;;;;;;5068432;28;20200;-66
2022/05/21 11:03:18;;;;;;;1.20;1.00;;;16.40;99.90;;;;;;5069160;28;20201;-69
2022/05/21 11:06:08;;;;;;;4.03;1.08;;;16.60;99.90;;;;;;5072963;28;20277;-66
2022/05/21 11:08:40;;;;;;;3.05;0.82;;;17.00;99.90;;;;;;5080452;28;20229;-66
2022/05/21 11:11:13;;;;;;;3.30;1.17;;;17.30;99.90;;;;;;5077804;28;20235;-65
2022/05/21 11:13:46;;;;;;;1.63;1.00;;;17.50;99.90;;;;;;5075917;28;20232;-66
2022/05/21 11:16:19;;;;;;;4.97;2.23;;;17.70;99.90;;;;;;5074557;28;20705;-67
2022/05/21 11:18:51;;;;;;;2.55;1.10;;;18.10;99.90;;;;;;5090220;28;20204;-65
2022/05/21 11:21:25;;;;;;;1.45;1.08;;;18.50;99.90;;;;;;5082771;28;20208;-63
2022/05/21 11:23:59;;;;;;;2.47;1.00;;;18.60;99.90;;;;;;5079411;28;20197;-64
2022/05/21 11:26:35;;;;;;;2.40;1.10;;;18.70;99.90;;;;;;5071123;28;20205;-65
2022/05/21 11:29:10;;;;;;;1.75;1.23;;;18.70;99.90;;;;;;5078171;28;20319;-65
2022/05/21 11:37:27;;;;;;;1.50;0.82;;;18.40;98.50;;;;;;5085024;28;20266;-66
2022/05/21 11:39:56;;;;;;;1.10;1.00;;;18.20;98.40;;;;;;5084711;28;20262;-67
2022/05/21 11:42:24;;;;;;;2.38;0.85;;;18.10;98.70;;;;;;5076411;28;20201;-66
2022/05/21 11:44:56;;;;;;;0.80;0.80;;;18.00;98.70;;;;;;5083076;28;20644;-66
2022/05/21 11:47:43;;;;;;;2.35;0.88;;;17.80;98.70;;;;;;5078054;28;20251;-66
2022/05/21 11:50:18;;;;;;;1.65;0.90;;;17.70;98.70;;;;;;5070195;28;20229;-65
2022/05/21 11:53:08;;;;;;;3.65;0.73;;;17.70;98.90;;;;;;5068377;28;20200;-64
2022/05/21 11:55:59;;;;;;;2.05;0.70;;;17.70;98.50;;;;;;5076784;28;20237;-64
2022/05/21 11:58:47;;;;;;;2.00;0.65;;;17.80;98.00;;;;;;5075013;28;20227;-66
2022/05/21 12:02:10;;;;;;;0.65;0.65;;;17.90;97.60;;;;;;5066114;28;20658;-66
2022/05/21 12:04:58;;;;;;;0.88;0.70;;;17.90;97.40;;;;;;5072436;28;20260;-65
2022/05/21 12:07:53;;;;;;;2.10;0.77;;;17.80;97.80;;;;;;5071899;28;20247;-65
2022/05/21 12:10:25;;;;;;;2.40;0.80;;;17.60;98.10;;;;;;5064546;28;20200;-65
2022/05/21 12:13:15;;;;;;;3.60;0.88;;;17.50;98.50;;;;;;5072595;28;20252;-65
2022/05/21 12:15:46;;;;;;;1.65;0.90;;;17.40;98.90;;;;;;5078616;28;20192;-65
2022/05/21 12:18:33;;;;;;;3.22;0.65;;;17.40;99.10;;;;;;5089775;28;20197;-65
2022/05/21 12:21:01;;;;;;;4.85;0.90;;;17.40;99.20;;;;;;5082089;28;20229;-65
2022/05/21 12:24:01;;;;;;;1.30;1.00;;;17.40;99.10;;;;;;5087496;28;20258;-66
2022/05/21 12:26:31;;;;;;;1.00;0.60;;;17.40;98.70;;;;;;5079703;28;20236;-66
2022/05/21 12:29:09;;;;;;;5.15;0.80;;;17.60;97.90;;;;;;5080103;28;20769;-67
2022/05/21 12:31:43;;;;;;;2.20;0.70;;;17.80;97.50;;;;;;5085878;28;20673;-66
2022/05/21 12:34:31;;;;;;;2.60;0.80;;;18.00;96.10;;;;;;5093136;28;20660;-65
2022/05/21 12:37:09;;;;;;;2.38;0.50;;;18.10;95.60;;;;;;5086532;28;20206;-67
2022/05/21 12:39:44;;;;;;;1.47;0.80;;;18.10;95.50;;;;;;5087685;28;20204;-66
2022/05/21 12:42:19;;;;;;;0.95;0.70;;;18.10;95.40;;;;;;5089140;28;20193;-66
2022/05/21 12:44:47;;;;;;;1.75;0.90;;;18.10;95.10;;;;;;5087319;28;20538;-65
2022/05/21 12:47:25;;;;;;;1.30;0.90;;;18.10;94.70;;;;;;5084542;28;20347;-65
2022/05/21 12:49:52;;;;;;;1.80;0.65;;;18.10;94.10;;;;;;5089059;28;20203;-66
2022/05/21 12:52:26;;;;;;;3.55;0.80;;;18.10;93.90;;;;;;5088969;28;20243;-66
2022/05/21 12:55:16;;;;;;;1.77;0.70;;;18.10;93.90;;;;;;5082858;28;20231;-65
2022/05/21 12:57:45;;;;;;;2.10;0.80;;;18.10;93.70;;;;;;5072789;28;20216;-65
2022/05/21 13:00:14;;;;;;;1.10;0.80;;;18.10;93.80;;;;;;5074011;28;20610;-67
2022/05/21 13:02:43;;;;;;;1.23;0.60;;;18.00;93.70;;;;;;5073500;28;20211;-69
2022/05/21 13:05:17;;;;;;;3.50;0.95;;;17.90;93.80;;;;;;5072820;28;20212;-72
2022/05/21 13:07:44;;;;;;;1.85;0.73;;;17.70;94.40;;;;;;5077623;28;20532;-71
2022/05/21 13:10:21;;;;;;;4.00;0.70;;;17.60;94.80;;;;;;5074615;28;20252;-71
2022/05/21 13:12:52;;;;;;;2.35;0.77;;;17.60;94.60;;;;;;5075363;28;20285;-73
2022/05/21 13:15:22;;;;;;;5.28;1.15;;;17.60;94.10;;;;;;5079164;28;20261;-70
2022/05/21 13:18:08;;;;;;;3.25;0.90;;;17.60;94.00;;;;;;5079328;28;20562;-70
2022/05/21 13:20:41;;;;;;;4.65;0.80;;;17.80;94.00;;;;;;5069022;28;20205;-71
2022/05/21 13:23:35;;;;;;;2.60;0.90;;;18.10;94.00;;;;;;5074116;28;20308;-72
2022/05/21 13:26:02;;;;;;;6.38;0.93;;;18.40;93.50;;;;;;5072108;28;20237;-71
2022/05/21 13:28:31;;;;;;;1.90;0.95;;;18.50;93.00;;;;;;5076616;28;20233;-72